Terminal Aerodrome Forecast
Issued by NWS

Home | Current Version | Previous Version | Text Only | Print | Product List | Glossary On
Versions: 1 2 3 4 5 6 7 8 9 10 11 12 13
000
FTUS44 KJAN 232300 RRA
TAFHKS
TAF
KHKS 232348Z 2400/2424 VRB05KT P6SM VCTS SCT030 BKN050CB BKN250
     FM240100 VRB03KT P6SM FEW050 SCT250
     FM241000 VRB03KT 5SM BR FEW015 SCT100 BKN250
     FM241330 32004KT P6SM SCT020 BKN040 BKN250
     FM241800 34005KT P6SM VCTS SCT030 BKN050CB
     FM242130 36006KT P6SM FEW030 SCT050=

USA.gov is the U.S. government's official web portal to all federal, state and local government web resources and services.